createdAt,value
2022-09-21T00:01:32.593Z,1.37
2022-09-21T00:04:03.275Z,1.92
2022-09-21T00:06:34.339Z,1.17
2022-09-21T00:09:02.105Z,1.33
2022-09-21T00:11:31.871Z,1.50
2022-09-21T00:14:02.390Z,1.55
2022-09-21T00:16:30.625Z,1.50
2022-09-21T00:18:58.831Z,1.73
2022-09-21T00:21:26.497Z,1.55
2022-09-21T00:23:55.428Z,1.42
2022-09-21T00:26:26.059Z,1.60
2022-09-21T00:28:59.040Z,1.80
2022-09-21T00:31:28.037Z,1.87
2022-09-21T00:33:55.910Z,1.50
2022-09-21T00:36:25.985Z,1.83
2022-09-21T00:38:58.898Z,1.80
2022-09-21T00:41:27.890Z,1.98
2022-09-21T00:44:17.238Z,1.55
2022-09-21T00:46:46.788Z,1.40
2022-09-21T00:49:15.772Z,1.55
2022-09-21T00:51:43.914Z,1.40
2022-09-21T00:54:18.604Z,1.50
2022-09-21T00:56:47.294Z,1.73
2022-09-21T00:59:21.535Z,1.75
2022-09-21T01:01:50.041Z,1.73
2022-09-21T01:04:19.998Z,1.87
2022-09-21T01:06:48.968Z,1.50
2022-09-21T01:09:19.287Z,1.48
2022-09-21T01:11:52.915Z,1.50
2022-09-21T01:14:54.401Z,1.55
2022-09-21T01:17:31.041Z,1.30
2022-09-21T01:20:18.390Z,1.70
2022-09-21T01:23:06.600Z,1.60
2022-09-21T01:26:04.083Z,1.30
2022-09-21T01:29:19.385Z,1.52
2022-09-21T01:32:10.327Z,1.90
2022-09-21T01:34:45.688Z,1.90
2022-09-21T01:37:18.606Z,1.90
2022-09-21T01:39:51.577Z,1.83
2022-09-21T01:42:21.988Z,2.10
2022-09-21T01:44:51.037Z,2.10
2022-09-21T01:47:20.116Z,2.30
2022-09-21T01:49:54.390Z,1.98
2022-09-21T01:52:29.179Z,2.47
2022-09-21T01:55:19.605Z,2.20
2022-09-21T01:58:09.790Z,1.62
2022-09-21T02:00:40.298Z,2.20
2022-09-21T02:03:22.530Z,1.92
2022-09-21T02:05:50.304Z,2.40
2022-09-21T02:08:18.316Z,2.40
2022-09-21T02:10:52.418Z,2.03
2022-09-21T02:13:24.486Z,2.33
2022-09-21T02:15:59.590Z,3.40
2022-09-21T02:18:42.614Z,3.35
2022-09-21T02:21:24.322Z,4.30
2022-09-21T02:24:27.419Z,3.53
2022-09-21T02:26:57.757Z,3.45
2022-09-21T02:29:37.381Z,3.22
2022-09-21T02:32:34.644Z,3.22
2022-09-21T02:35:24.427Z,3.62
2022-09-21T02:38:08.058Z,3.35
2022-09-21T02:40:44.806Z,2.83
2022-09-21T02:43:45.314Z,2.65
2022-09-21T02:46:19.131Z,2.50
2022-09-21T02:48:52.601Z,2.90
2022-09-21T02:51:40.761Z,2.08
2022-09-21T02:54:12.157Z,3.33
2022-09-21T02:56:42.218Z,2.90
2022-09-21T02:59:10.411Z,2.35
2022-09-21T03:01:41.548Z,2.70
2022-09-21T03:04:10.695Z,2.58
2022-09-21T03:06:38.476Z,2.58
2022-09-21T03:09:06.084Z,2.62
2022-09-21T03:11:34.928Z,2.20
2022-09-21T03:14:10.064Z,2.67
2022-09-21T03:16:38.587Z,2.28
2022-09-21T03:19:06.422Z,2.60
2022-09-21T03:21:34.153Z,2.62
2022-09-21T03:24:01.801Z,2.62
2022-09-21T03:26:29.470Z,2.33
2022-09-21T03:28:57.331Z,2.47
2022-09-21T03:31:25.127Z,2.20
2022-09-21T03:33:52.946Z,2.40
2022-09-21T03:36:22.032Z,2.50
2022-09-21T03:38:49.601Z,2.15
2022-09-21T03:41:17.255Z,2.10
2022-09-21T03:43:44.915Z,2.40
2022-09-21T03:46:12.825Z,2.35
2022-09-21T03:48:43.561Z,2.20
2022-09-21T03:51:11.186Z,2.20
2022-09-21T03:53:38.807Z,2.42
2022-09-21T03:56:06.569Z,2.35
2022-09-21T03:58:34.176Z,2.30
2022-09-21T04:01:05.028Z,2.10
2022-09-21T04:03:32.666Z,2.00
2022-09-21T04:06:00.298Z,2.75
2022-09-21T04:08:28.063Z,2.70
2022-09-21T04:10:57.361Z,2.83
2022-09-21T04:13:25.890Z,3.45
2022-09-21T04:15:53.663Z,3.30
2022-09-21T04:18:21.343Z,2.95
2022-09-21T04:20:48.913Z,2.70
2022-09-21T04:23:16.575Z,3.42
2022-09-21T04:25:45.360Z,3.10
2022-09-21T04:28:13.046Z,2.97
2022-09-21T04:30:41.357Z,2.75
2022-09-21T04:33:08.950Z,2.87
2022-09-21T04:35:36.682Z,2.83
2022-09-21T04:38:04.523Z,2.50
2022-09-21T04:40:32.510Z,3.00
2022-09-21T04:43:00.222Z,3.78
2022-09-21T04:45:27.869Z,2.47
2022-09-21T04:47:55.504Z,2.10
2022-09-21T04:50:23.202Z,2.30
2022-09-21T04:52:50.925Z,2.40
2022-09-21T04:55:18.620Z,2.90
2022-09-21T04:57:46.266Z,2.50
2022-09-21T05:00:14.256Z,2.05
2022-09-21T05:02:41.843Z,2.25
2022-09-21T05:05:09.628Z,2.40
2022-09-21T05:07:37.290Z,2.10
2022-09-21T05:10:05.218Z,2.25
2022-09-21T05:12:34.126Z,1.85
2022-09-21T05:15:02.489Z,2.20
2022-09-21T05:17:30.338Z,2.17
2022-09-21T05:19:57.964Z,2.35
2022-09-21T05:22:25.639Z,2.08
2022-09-21T05:24:53.290Z,2.33
2022-09-21T05:27:20.907Z,2.37
2022-09-21T05:29:48.884Z,2.70
2022-09-21T05:32:44.135Z,2.58
2022-09-21T05:35:27.095Z,2.75
2022-09-21T05:38:05.340Z,3.33
2022-09-21T05:40:33.447Z,2.78
2022-09-21T05:43:01.398Z,3.40
2022-09-21T05:45:30.138Z,3.15
2022-09-21T05:48:21.753Z,2.62
2022-09-21T05:50:58.593Z,2.53
2022-09-21T05:53:33.840Z,2.75
2022-09-21T05:56:08.686Z,2.37
2022-09-21T05:58:48.481Z,2.67
2022-09-21T06:01:47.719Z,2.83
2022-09-21T06:04:15.671Z,2.70
2022-09-21T06:06:43.313Z,2.62
2022-09-21T06:09:10.997Z,2.30
2022-09-21T06:11:38.626Z,2.80
2022-09-21T06:14:06.438Z,1.90
2022-09-21T06:16:44.260Z,2.42
2022-09-21T06:19:13.481Z,2.65
2022-09-21T06:21:41.307Z,2.10
2022-09-21T06:24:09.230Z,2.37
2022-09-21T06:26:36.835Z,2.45
2022-09-21T06:29:04.768Z,2.33
2022-09-21T06:31:32.501Z,2.67
2022-09-21T06:34:00.285Z,2.80
2022-09-21T06:36:27.929Z,2.10
2022-09-21T06:38:55.545Z,2.40
2022-09-21T06:41:23.165Z,2.80
2022-09-21T06:43:55.115Z,1.80
2022-09-21T06:46:22.803Z,2.22
2022-09-21T06:48:51.234Z,1.73
2022-09-21T06:51:18.887Z,2.35
2022-09-21T06:53:46.585Z,2.30
2022-09-21T06:56:14.177Z,1.90
2022-09-21T06:58:41.878Z,2.83
2022-09-21T07:01:11.480Z,2.25
2022-09-21T07:03:40.500Z,1.62
2022-09-21T07:06:09.341Z,1.67
2022-09-21T07:11:25.183Z,1.62
2022-09-21T07:13:53.951Z,1.83
2022-09-21T07:16:22.566Z,1.92
2022-09-21T07:18:50.309Z,1.67
2022-09-21T07:21:18.214Z,2.30
2022-09-21T07:23:45.859Z,1.80
2022-09-21T07:26:14.952Z,1.83
2022-09-21T07:28:43.453Z,2.05
2022-09-21T07:31:16.236Z,1.52
2022-09-21T07:33:45.233Z,1.80
2022-09-21T07:36:14.059Z,1.80
2022-09-21T07:38:45.241Z,2.08
2022-09-21T07:41:15.382Z,1.50
2022-09-21T07:43:43.499Z,2.10
2022-09-21T07:46:14.719Z,2.10
2022-09-21T07:48:43.051Z,1.60
2022-09-21T07:51:13.155Z,1.90
2022-09-21T07:53:43.453Z,1.62
2022-09-21T07:56:16.887Z,2.03
2022-09-21T07:59:03.544Z,1.50
2022-09-21T08:01:32.000Z,2.17
2022-09-21T08:04:00.741Z,1.90
2022-09-21T08:06:31.429Z,1.52
2022-09-21T08:08:59.342Z,1.73
2022-09-21T08:11:28.926Z,1.90
2022-09-21T08:13:59.477Z,1.87
2022-09-21T08:16:28.160Z,1.87
2022-09-21T08:18:56.233Z,1.30
2022-09-21T08:21:24.250Z,1.52
2022-09-21T08:23:51.869Z,1.40
2022-09-21T08:26:21.594Z,1.40
2022-09-21T08:28:52.460Z,1.33
2022-09-21T08:31:22.419Z,1.55
2022-09-21T08:33:50.956Z,1.48
2022-09-21T08:36:19.874Z,1.58
2022-09-21T08:38:49.279Z,1.67
2022-09-21T08:41:19.250Z,1.30
2022-09-21T08:43:54.689Z,1.20
2022-09-21T08:46:26.294Z,1.40
2022-09-21T08:49:08.150Z,1.10
2022-09-21T08:51:39.428Z,1.67
2022-09-21T08:54:30.250Z,1.40
2022-09-21T08:57:05.468Z,1.25
2022-09-21T08:59:35.440Z,1.35
2022-09-21T09:02:24.653Z,1.80
2022-09-21T09:05:07.261Z,1.50
2022-09-21T09:07:35.225Z,1.40
2022-09-21T09:10:32.205Z,1.62
2022-09-21T09:13:24.036Z,1.55
2022-09-21T09:16:03.673Z,1.37
2022-09-21T09:18:55.456Z,1.27
2022-09-21T09:21:38.803Z,1.90
2022-09-21T09:24:32.357Z,1.35
2022-09-21T09:27:12.105Z,1.30
2022-09-21T09:29:39.632Z,1.37
2022-09-21T09:32:15.497Z,1.40
2022-09-21T09:34:56.227Z,1.27
2022-09-21T09:37:32.018Z,1.52
2022-09-21T09:40:01.921Z,1.48
2022-09-21T09:42:48.018Z,1.30
2022-09-21T09:45:34.007Z,1.70
2022-09-21T09:48:34.977Z,1.30
2022-09-21T09:51:02.954Z,1.33
2022-09-21T09:53:31.532Z,1.20
2022-09-21T09:56:00.137Z,0.98
2022-09-21T09:58:49.152Z,1.23
2022-09-21T10:01:42.354Z,1.15
2022-09-21T10:04:14.922Z,1.25
2022-09-21T10:06:46.355Z,0.77
2022-09-21T10:09:33.501Z,0.90
2022-09-21T10:12:10.495Z,0.85
2022-09-21T10:14:38.316Z,0.93
2022-09-21T10:17:08.970Z,0.93
2022-09-21T10:19:36.810Z,0.85
2022-09-21T10:22:06.168Z,1.02
2022-09-21T10:24:41.730Z,0.98
2022-09-21T10:27:14.590Z,1.10
2022-09-21T10:29:48.079Z,0.88
2022-09-21T10:32:18.375Z,1.00
2022-09-21T10:35:08.779Z,1.33
2022-09-21T10:37:39.852Z,0.90
2022-09-21T10:40:23.575Z,0.90
2022-09-21T10:42:56.033Z,0.80
2022-09-21T10:45:32.933Z,0.90
2022-09-21T10:48:15.553Z,0.95
2022-09-21T10:50:45.967Z,1.00
2022-09-21T10:53:21.589Z,1.35
2022-09-21T10:56:18.015Z,0.90
2022-09-21T10:59:11.944Z,0.98
2022-09-21T11:01:46.506Z,0.82
2022-09-21T11:04:29.100Z,1.00
2022-09-21T11:07:18.453Z,1.00
2022-09-21T11:10:14.134Z,1.00
2022-09-21T11:13:04.047Z,0.93
2022-09-21T11:16:02.472Z,1.05
2022-09-21T11:18:56.510Z,0.88
2022-09-21T11:21:42.089Z,0.93
2022-09-21T11:24:41.911Z,0.90
2022-09-21T11:27:19.339Z,0.77
2022-09-21T11:30:02.875Z,1.30
2022-09-21T11:33:01.863Z,0.93
2022-09-21T11:35:30.109Z,1.10
2022-09-21T11:38:22.226Z,1.08
2022-09-21T11:40:58.629Z,1.08
2022-09-21T11:43:42.765Z,1.00
2022-09-21T11:46:25.145Z,1.20
2022-09-21T11:49:20.487Z,1.23
2022-09-21T11:52:17.082Z,1.17
2022-09-21T11:55:07.347Z,1.20
2022-09-21T11:58:16.351Z,0.80
2022-09-21T12:01:06.010Z,0.85
2022-09-21T12:03:53.861Z,0.90
2022-09-21T12:06:38.754Z,0.90
2022-09-21T12:09:38.287Z,0.98
2022-09-21T12:12:16.646Z,0.80
2022-09-21T12:15:10.234Z,1.25
2022-09-21T12:17:59.722Z,0.80
2022-09-21T12:20:50.440Z,1.00
2022-09-21T12:23:44.689Z,0.70
2022-09-21T12:26:18.696Z,1.23
2022-09-21T12:28:54.717Z,0.77
2022-09-21T12:31:48.329Z,0.85
2022-09-21T12:34:27.463Z,0.73
2022-09-21T12:37:18.465Z,0.70
2022-09-21T12:39:55.126Z,0.98
2022-09-21T12:42:43.174Z,0.70
2022-09-21T12:45:44.459Z,0.70
2022-09-21T12:48:18.456Z,0.90
2022-09-21T12:50:56.175Z,1.05
2022-09-21T12:53:28.319Z,0.80
2022-09-21T12:56:09.848Z,0.82
2022-09-21T12:59:15.795Z,0.80
2022-09-21T13:01:46.414Z,0.70
2022-09-21T13:04:42.735Z,0.70
2022-09-21T13:07:13.367Z,0.68
2022-09-21T13:09:44.396Z,0.70
2022-09-21T13:12:18.762Z,0.93
2022-09-21T13:14:52.772Z,0.90
2022-09-21T13:17:29.752Z,0.80
2022-09-21T13:20:02.016Z,0.80
2022-09-21T13:22:34.477Z,0.80
2022-09-21T13:25:29.243Z,1.08
2022-09-21T13:28:20.991Z,1.02
2022-09-21T13:30:50.808Z,0.70
2022-09-21T13:33:21.458Z,0.70
2022-09-21T13:35:54.457Z,0.88
2022-09-21T13:38:30.429Z,0.90
2022-09-21T13:41:00.003Z,0.70
2022-09-21T13:43:48.024Z,0.98
2022-09-21T13:46:34.104Z,0.75
2022-09-21T13:49:13.158Z,0.82
2022-09-21T13:52:26.920Z,0.73
2022-09-21T13:55:07.318Z,0.80
2022-09-21T13:57:40.294Z,0.80
2022-09-21T14:00:11.232Z,0.70
2022-09-21T14:02:46.866Z,0.90
2022-09-21T14:05:25.394Z,0.85
2022-09-21T14:08:27.411Z,0.60
2022-09-21T14:11:06.722Z,0.80
2022-09-21T14:13:44.924Z,0.70
2022-09-21T14:16:35.226Z,0.65
2022-09-21T14:19:05.016Z,0.70
2022-09-21T14:21:32.795Z,0.60
2022-09-21T14:24:18.361Z,0.90
2022-09-21T14:27:02.042Z,0.57
2022-09-21T14:29:49.272Z,0.70
2022-09-21T14:32:24.627Z,0.80
2022-09-21T14:34:58.267Z,0.85
2022-09-21T14:37:40.425Z,0.50
2022-09-21T14:40:19.116Z,0.93
2022-09-21T14:42:47.587Z,0.70
2022-09-21T14:45:21.746Z,0.70
2022-09-21T14:48:19.305Z,1.00
2022-09-21T14:51:04.533Z,0.75
2022-09-21T14:54:09.582Z,0.80
2022-09-21T14:56:52.825Z,0.73
2022-09-21T14:59:33.020Z,0.77
2022-09-21T15:02:04.689Z,0.70
2022-09-21T15:04:57.637Z,0.70
2022-09-21T15:08:06.679Z,0.60
2022-09-21T15:11:04.266Z,0.62
2022-09-21T15:13:37.304Z,0.80
2022-09-21T15:16:22.967Z,0.77
2022-09-21T15:18:52.418Z,0.65
2022-09-21T15:21:27.376Z,0.80
2022-09-21T15:23:55.258Z,0.50
2022-09-21T15:26:30.267Z,0.60
2022-09-21T15:29:11.054Z,0.60
2022-09-21T15:31:41.574Z,0.90
2022-09-21T15:34:14.249Z,0.70
2022-09-21T15:36:43.873Z,0.77
2022-09-21T15:39:25.275Z,0.80
2022-09-21T15:42:10.848Z,0.73
2022-09-21T15:44:39.813Z,0.82
2022-09-21T15:47:14.076Z,1.00
2022-09-21T15:49:44.327Z,0.70
2022-09-21T15:52:27.340Z,0.70
2022-09-21T15:55:04.236Z,0.90
2022-09-21T15:57:39.460Z,0.75
2022-09-21T16:00:16.500Z,0.80
2022-09-21T16:02:57.169Z,0.73
2022-09-21T16:05:26.886Z,0.80
2022-09-21T16:08:17.645Z,0.70
2022-09-21T16:10:45.810Z,0.88
2022-09-21T16:13:37.887Z,1.00
2022-09-21T16:16:09.262Z,0.90
2022-09-21T16:18:50.079Z,0.88
2022-09-21T16:21:34.038Z,0.65
2022-09-21T16:24:24.071Z,0.77
2022-09-21T16:27:01.396Z,0.82
2022-09-21T16:29:40.288Z,0.60
2022-09-21T16:32:37.118Z,0.90
2022-09-21T16:35:32.513Z,0.80
2022-09-21T16:38:00.225Z,0.80
2022-09-21T16:40:29.499Z,0.88
2022-09-21T16:42:57.895Z,0.80
2022-09-21T16:45:32.393Z,0.85
2022-09-21T16:48:00.716Z,0.80
2022-09-21T16:50:28.380Z,0.70
2022-09-21T16:52:56.022Z,1.00
2022-09-21T16:55:28.827Z,0.60
2022-09-21T16:57:57.197Z,0.60
2022-09-21T17:00:24.915Z,0.55
2022-09-21T17:02:52.708Z,0.60
2022-09-21T17:05:21.714Z,0.60
2022-09-21T17:07:55.949Z,0.77
2022-09-21T17:10:30.155Z,0.88
2022-09-21T17:12:58.394Z,0.88
2022-09-21T17:15:26.833Z,0.90
2022-09-21T17:17:54.523Z,0.73
2022-09-21T17:20:32.603Z,0.65
2022-09-21T17:23:00.300Z,1.00
2022-09-21T17:25:28.831Z,0.80
2022-09-21T17:27:59.166Z,1.00
2022-09-21T17:30:28.260Z,0.82
2022-09-21T17:32:57.087Z,0.90
2022-09-21T17:35:37.130Z,0.60
2022-09-21T17:38:04.828Z,0.80
2022-09-21T17:40:33.814Z,0.52
2022-09-21T17:43:33.273Z,0.93
2022-09-21T17:46:26.017Z,0.73
2022-09-21T17:48:54.140Z,1.48
2022-09-21T17:51:40.470Z,0.80
2022-09-21T17:54:08.562Z,0.93
2022-09-21T17:56:47.959Z,1.00
2022-09-21T17:59:32.870Z,0.90
2022-09-21T18:02:02.143Z,1.20
2022-09-21T18:04:35.924Z,0.90
2022-09-21T18:07:04.329Z,0.90
2022-09-21T18:09:32.238Z,1.00
2022-09-21T18:12:36.264Z,0.70
2022-09-21T18:15:32.426Z,0.68
2022-09-21T18:18:19.857Z,0.80
2022-09-21T18:21:04.777Z,0.80
2022-09-21T18:23:56.201Z,0.70
2022-09-21T18:26:24.570Z,0.93
2022-09-21T18:28:58.141Z,0.70
2022-09-21T18:31:32.332Z,0.85
2022-09-21T18:34:14.290Z,0.82
2022-09-21T18:36:56.016Z,0.82
2022-09-21T18:39:38.614Z,1.00
2022-09-21T18:42:49.674Z,0.90
2022-09-21T18:45:26.429Z,0.73
2022-09-21T18:48:11.545Z,1.50
2022-09-21T18:51:05.845Z,1.10
2022-09-21T18:53:45.974Z,0.90
2022-09-21T18:56:14.706Z,0.82
2022-09-21T18:58:46.322Z,1.17
2022-09-21T19:01:15.260Z,0.77
2022-09-21T19:03:46.675Z,1.10
2022-09-21T19:06:38.709Z,0.90
2022-09-21T19:09:12.966Z,1.10
2022-09-21T19:11:53.126Z,0.77
2022-09-21T19:14:47.254Z,0.70
2022-09-21T19:17:59.921Z,0.70
2022-09-21T19:20:51.717Z,0.80
2022-09-21T19:23:50.737Z,1.00
2022-09-21T19:26:33.648Z,0.88
2022-09-21T19:29:15.170Z,0.75
2022-09-21T19:31:42.983Z,0.80
2022-09-21T19:34:17.756Z,0.88
2022-09-21T19:36:48.345Z,0.65
2022-09-21T19:39:17.188Z,1.00
2022-09-21T19:42:10.970Z,0.85
2022-09-21T19:44:59.956Z,0.90
2022-09-21T19:47:31.306Z,0.85
2022-09-21T19:50:21.339Z,0.77
2022-09-21T19:52:49.536Z,0.80
2022-09-21T19:55:40.720Z,0.90
2022-09-21T19:58:27.915Z,1.10
2022-09-21T20:00:57.980Z,0.70
2022-09-21T20:03:38.628Z,0.90
2022-09-21T20:06:23.439Z,1.00
2022-09-21T20:09:11.093Z,1.10
2022-09-21T20:11:52.121Z,0.88
2022-09-21T20:14:34.867Z,1.00
2022-09-21T20:17:09.879Z,1.10
2022-09-21T20:19:49.401Z,1.10
2022-09-21T20:22:19.650Z,0.90
2022-09-21T20:25:01.814Z,1.10
2022-09-21T20:27:47.442Z,1.17
2022-09-21T20:30:17.412Z,0.90
2022-09-21T20:32:49.736Z,0.88
2022-09-21T20:35:26.559Z,1.20
2022-09-21T20:37:58.587Z,1.05
2022-09-21T20:40:30.046Z,1.00
2022-09-21T20:42:59.313Z,1.00
2022-09-21T20:45:27.001Z,1.20
2022-09-21T20:47:56.006Z,0.90
2022-09-21T20:50:24.745Z,1.20
2022-09-21T20:52:53.291Z,1.10
2022-09-21T20:55:21.453Z,1.02
2022-09-21T20:57:49.106Z,1.08
2022-09-21T21:00:17.968Z,1.00
2022-09-21T21:02:46.105Z,1.00
2022-09-21T21:05:13.802Z,1.10
2022-09-21T21:07:43.622Z,1.02
2022-09-21T21:10:15.200Z,1.02
2022-09-21T21:12:43.423Z,0.93
2022-09-21T21:15:12.613Z,1.00
2022-09-21T21:17:41.930Z,1.10
2022-09-21T21:20:10.560Z,0.90
2022-09-21T21:22:38.470Z,1.05
2022-09-21T21:25:06.554Z,0.90
2022-09-21T21:27:34.236Z,1.15
2022-09-21T21:30:03.244Z,0.90
2022-09-21T21:32:33.664Z,0.90
2022-09-21T21:35:01.553Z,0.60
2022-09-21T21:37:29.697Z,0.82
2022-09-21T21:39:58.131Z,1.15
2022-09-21T21:42:28.696Z,1.15
2022-09-21T21:44:56.989Z,1.33
2022-09-21T21:47:41.016Z,1.10
2022-09-21T21:50:10.857Z,1.00
2022-09-21T21:52:38.734Z,1.10
2022-09-21T21:55:07.716Z,5.60
2022-09-21T21:57:36.035Z,1.62
2022-09-21T22:00:05.648Z,1.55
2022-09-21T22:02:33.472Z,1.08
2022-09-21T22:05:01.277Z,1.67
2022-09-21T22:07:28.958Z,1.40
2022-09-21T22:09:57.028Z,1.48
2022-09-21T22:12:24.732Z,1.17
2022-09-21T22:14:52.426Z,1.87
2022-09-21T22:17:20.349Z,1.55
2022-09-21T22:19:48.153Z,1.30
2022-09-21T22:22:15.800Z,1.50
2022-09-21T22:24:43.446Z,1.40
2022-09-21T22:27:11.164Z,1.40
2022-09-21T22:29:40.599Z,1.55
2022-09-21T22:32:08.318Z,1.27
2022-09-21T22:34:36.031Z,1.60
2022-09-21T22:37:03.642Z,1.80
2022-09-21T22:39:32.135Z,1.60
2022-09-21T22:42:00.477Z,1.55
2022-09-21T22:44:28.091Z,1.40
2022-09-21T22:46:55.765Z,1.70
2022-09-21T22:49:23.464Z,1.20
2022-09-21T22:51:51.289Z,1.30
2022-09-21T22:54:18.920Z,1.30
2022-09-21T22:56:46.534Z,1.62
2022-09-21T22:59:14.179Z,1.40
2022-09-21T23:01:42.209Z,1.20
2022-09-21T23:04:14.860Z,1.30
2022-09-21T23:06:44.886Z,1.25
2022-09-21T23:09:19.469Z,1.10
2022-09-21T23:11:49.586Z,1.10
2022-09-21T23:14:18.400Z,1.73
2022-09-21T23:16:46.816Z,1.33
2022-09-21T23:19:17.810Z,1.33
2022-09-21T23:21:47.885Z,1.30
2022-09-21T23:24:15.589Z,1.50
2022-09-21T23:26:43.547Z,1.23
2022-09-21T23:29:13.726Z,1.40
2022-09-21T23:31:45.077Z,1.40
2022-09-21T23:34:13.836Z,1.10
2022-09-21T23:36:42.682Z,1.20
2022-09-21T23:39:15.769Z,1.37
2022-09-21T23:41:43.835Z,1.17
2022-09-21T23:44:11.941Z,1.02
2022-09-21T23:46:41.136Z,1.40
2022-09-21T23:49:10.429Z,1.60
2022-09-21T23:51:38.352Z,1.12
2022-09-21T23:54:06.151Z,1.12
2022-09-21T23:56:34.433Z,1.25
2022-09-21T23:59:02.580Z,1.30
